Time;durP1;ratioP1;P1;durP2;ratioP2;P2;SDS_P1;SDS_P2;PMS_P1;PMS_P2;Temp;Humidity;BMP_temperature;BMP_pressure;BME280_temperature;BME280_humidity;BME280_pressure;Samples;Min_cycle;Max_cycle;Signal;HPM_P1;HPM_P2
2024/01/21 00:00:08;;;;;;;9.02;4.70;;;;;;;2.71;54.02;102371.44;4867479;28;123870;-72
2024/01/21 00:02:38;;;;;;;12.75;5.30;;;;;;;2.72;54.03;102368.88;4869219;28;119669;-72
2024/01/21 00:05:06;;;;;;;9.88;4.82;;;;;;;2.75;53.99;102368.03;4849563;28;118880;-72
2024/01/21 00:07:33;;;;;;;13.10;5.28;;;;;;;2.76;53.80;102364.53;4852863;28;124786;-72
2024/01/21 00:10:00;;;;;;;9.70;4.47;;;;;;;2.77;53.80;102345.38;4852523;28;124292;-72
2024/01/21 00:12:27;;;;;;;10.82;4.70;;;;;;;2.77;53.80;102340.16;4836673;28;120099;-72
2024/01/21 00:14:54;;;;;;;10.98;5.13;;;;;;;2.78;53.81;102343.63;4870049;28;119141;-72
2024/01/21 00:17:22;;;;;;;14.90;5.20;;;;;;;2.77;53.59;102334.91;4867292;28;125074;-72
2024/01/21 00:19:49;;;;;;;11.10;4.70;;;;;;;2.77;53.62;102329.69;4842306;28;124187;-72
2024/01/21 00:22:16;;;;;;;11.48;5.13;;;;;;;2.77;53.63;102318.31;4851927;28;121024;-72
2024/01/21 00:24:43;;;;;;;8.77;4.80;;;;;;;2.76;53.56;102322.69;4870163;28;119964;-72
2024/01/21 00:27:10;;;;;;;10.07;4.47;;;;;;;2.73;53.73;102318.31;4852208;28;123254;-72
2024/01/21 00:29:38;;;;;;;10.05;4.55;;;;;;;2.71;53.10;102313.91;4867161;28;123782;-72
2024/01/21 00:32:05;;;;;;;9.63;4.70;;;;;;;2.69;53.39;102310.41;4852839;28;119600;-72
2024/01/21 00:34:33;;;;;;;10.15;4.85;;;;;;;2.67;53.79;102317.34;4870562;28;119973;-72
2024/01/21 00:37:00;;;;;;;11.13;5.07;;;;;;;2.66;53.34;102305.16;4870821;28;124503;-72
2024/01/21 00:39:27;;;;;;;10.88;4.97;;;;;;;2.63;53.23;102316.44;4851662;28;124633;-72
2024/01/21 00:41:55;;;;;;;10.00;4.38;;;;;;;2.61;53.21;102306.81;4871038;28;119293;-72
2024/01/21 00:44:34;;;;;;;8.82;4.45;;;;;;;2.60;53.44;102310.28;4838927;28;121005;-71
2024/01/21 00:47:01;;;;;;;8.35;3.97;;;;;;;2.57;53.32;102305.03;4869756;28;124675;-72
2024/01/21 00:49:29;;;;;;;11.07;4.55;;;;;;;2.56;53.41;102298.03;4870144;28;123538;-72
2024/01/21 00:51:57;;;;;;;12.05;4.80;;;;;;;2.52;53.08;102298.03;4870178;28;119389;-72
2024/01/21 00:54:24;;;;;;;10.27;4.50;;;;;;;2.50;53.29;102304.94;4866120;28;121701;-72
2024/01/21 00:56:51;;;;;;;13.10;4.15;;;;;;;2.48;53.15;102296.19;4868361;28;124776;-72
2024/01/21 00:59:19;;;;;;;9.45;4.35;;;;;;;2.48;53.22;102296.19;4869060;28;123929;-71
2024/01/21 01:01:46;;;;;;;11.52;4.45;;;;;;;2.46;53.05;102297.06;4851394;28;119377;-72
2024/01/21 01:04:13;;;;;;;9.23;4.50;;;;;;;2.46;53.17;102294.44;4853804;28;118600;-72
2024/01/21 01:06:40;;;;;;;11.52;4.40;;;;;;;2.44;53.08;102291.81;4853467;28;123464;-72
2024/01/21 01:09:07;;;;;;;9.30;4.43;;;;;;;2.44;53.11;102281.34;4852523;28;125729;-72
2024/01/21 01:11:35;;;;;;;9.05;4.03;;;;;;;2.41;53.25;102288.28;4869350;28;120441;-72
2024/01/21 01:14:03;;;;;;;8.50;4.20;;;;;;;2.38;52.88;102273.44;4858267;28;121094;-72
2024/01/21 01:16:30;;;;;;;10.50;4.55;;;;;;;2.36;52.74;102280.38;4853146;28;125674;-72
2024/01/21 01:18:57;;;;;;;9.25;4.20;;;;;;;2.33;53.10;102281.19;4841412;28;123319;-71
2024/01/21 01:21:24;;;;;;;10.98;4.20;;;;;;;2.31;52.88;102282.06;4852739;28;118832;-72
2024/01/21 01:23:52;;;;;;;8.88;4.07;;;;;;;2.28;53.10;102275.06;4866683;28;119893;-72
2024/01/21 01:26:19;;;;;;;10.82;4.53;;;;;;;2.27;52.89;102275.91;4853542;28;125583;-72
2024/01/21 01:28:46;;;;;;;11.90;4.32;;;;;;;2.25;52.86;102261.94;4864087;28;123818;-72
2024/01/21 01:31:22;;;;;;;9.68;4.18;;;;;;;2.23;52.95;102262.81;4855630;28;120412;-72
2024/01/21 01:33:51;;;;;;;8.65;3.95;;;;;;;2.22;52.84;102261.03;4842607;28;118680;-72
2024/01/21 01:36:18;;;;;;;10.13;4.05;;;;;;;2.20;53.29;102252.28;4871289;28;123740;-72
2024/01/21 01:38:45;;;;;;;8.85;4.10;;;;;;;2.17;53.02;102247.03;4853347;28;123718;-71
2024/01/21 01:41:12;;;;;;;12.02;4.50;;;;;;;2.13;52.71;102235.69;4868183;28;119476;-72
2024/01/21 01:43:40;;;;;;;9.05;3.92;;;;;;;2.10;52.89;102239.09;4842340;28;119143;-72
2024/01/21 01:46:07;;;;;;;10.25;3.95;;;;;;;2.09;52.94;102231.25;4870052;28;123677;-72
2024/01/21 01:48:34;;;;;;;9.23;3.75;;;;;;;2.05;52.99;102227.72;4870694;28;123124;-72
2024/01/21 01:51:03;;;;;;;7.25;4.25;;;;;;;2.02;52.73;102222.47;4867780;28;119435;-72
2024/01/21 01:53:34;;;;;;;11.82;4.20;;;;;;;2.00;53.04;102200.66;4854898;28;119455;-72
2024/01/21 01:56:02;;;;;;;7.47;3.42;;;;;;;1.98;52.96;102189.31;4854401;28;124660;-72
2024/01/21 01:58:31;;;;;;;7.40;3.60;;;;;;;1.97;53.23;102176.25;4854016;28;124657;-72
2024/01/21 02:00:59;;;;;;;7.82;3.80;;;;;;;1.95;52.94;102169.25;4869073;28;120769;-73
2024/01/21 02:03:27;;;;;;;8.88;3.75;;;;;;;1.95;52.90;102168.38;4843340;28;119750;-72
2024/01/21 02:05:55;;;;;;;9.85;3.30;;;;;;;1.94;52.98;102167.50;4853836;28;128127;-72
2024/01/21 02:08:22;;;;;;;8.52;4.03;;;;;;;1.95;53.12;102163.16;4853628;28;124769;-73
2024/01/21 02:10:49;;;;;;;8.45;3.78;;;;;;;1.96;53.06;102170.16;4869180;28;120026;-72
2024/01/21 02:13:16;;;;;;;7.35;3.55;;;;;;;1.97;53.10;102169.28;4871639;28;118699;-72
2024/01/21 02:15:43;;;;;;;6.90;3.25;;;;;;;1.97;52.94;102166.66;4867984;28;124673;-72
2024/01/21 02:18:11;;;;;;;6.70;3.30;;;;;;;1.99;53.14;102164.94;4869365;28;124311;-72
2024/01/21 02:20:39;;;;;;;7.38;3.25;;;;;;;2.01;53.01;102163.22;4860892;28;120302;-72
2024/01/21 02:23:10;;;;;;;6.47;3.55;;;;;;;2.03;53.21;102171.94;4837959;28;120162;-72
2024/01/21 02:25:37;;;;;;;6.20;2.88;;;;;;;2.05;53.12;102158.91;4855123;28;124656;-72
2024/01/21 02:28:04;;;;;;;7.05;3.08;;;;;;;2.05;53.05;102149.31;4853091;28;124643;-72
2024/01/21 02:30:31;;;;;;;5.85;2.80;;;;;;;2.07;53.01;102152.84;4853121;28;119786;-72
2024/01/21 02:32:59;;;;;;;7.55;3.17;;;;;;;2.07;52.89;102137.19;4869050;28;120554;-72
2024/01/21 02:35:26;;;;;;;7.05;3.20;;;;;;;2.08;52.81;102138.91;4857590;28;124505;-72
2024/01/21 02:37:53;;;;;;;5.63;2.90;;;;;;;2.09;52.97;102122.41;4850494;28;124674;-72
2024/01/21 02:40:20;;;;;;;5.43;2.85;;;;;;;2.10;52.84;102125.88;4871409;28;119372;-72
2024/01/21 02:42:47;;;;;;;10.27;2.90;;;;;;;2.08;52.79;102123.22;4869737;28;119614;-72
2024/01/21 02:45:14;;;;;;;5.28;2.78;;;;;;;2.10;52.79;102118.91;4868992;28;123735;-72
2024/01/21 02:47:42;;;;;;;8.70;2.92;;;;;;;2.10;52.88;102116.28;4853549;28;124311;-72
2024/01/21 02:50:09;;;;;;;6.78;3.20;;;;;;;2.11;52.81;102107.59;4842840;28;120565;-72
2024/01/21 02:52:36;;;;;;;5.47;2.85;;;;;;;2.13;52.94;102097.16;4857070;28;119657;-72
2024/01/21 02:55:04;;;;;;;6.47;2.75;;;;;;;2.15;52.93;102108.50;4851754;28;124891;-73
2024/01/21 02:57:31;;;;;;;5.38;2.75;;;;;;;2.18;52.88;102097.19;4839270;28;123956;-73
2024/01/21 02:59:58;;;;;;;4.68;2.50;;;;;;;2.21;52.73;102092.00;4853169;28;119636;-72
2024/01/21 03:02:25;;;;;;;7.55;2.75;;;;;;;2.24;53.00;102089.41;4868537;28;119839;-72
2024/01/21 03:04:52;;;;;;;6.90;2.95;;;;;;;2.27;52.92;102084.22;4853916;28;123931;-72
2024/01/21 03:07:20;;;;;;;6.00;3.00;;;;;;;2.30;52.97;102086.88;4853546;28;123881;-72
2024/01/21 03:09:47;;;;;;;7.53;2.80;;;;;;;2.34;53.02;102081.69;4862024;28;119564;-72
2024/01/21 03:12:14;;;;;;;7.18;3.00;;;;;;;2.38;52.74;102079.09;4877146;28;120924;-72
2024/01/21 03:14:41;;;;;;;6.65;3.03;;;;;;;2.40;52.94;102066.91;4877012;28;124607;-72
2024/01/21 03:17:09;;;;;;;5.50;2.63;;;;;;;2.42;52.86;102075.66;4894277;28;124197;-71
2024/01/21 03:19:36;;;;;;;6.28;3.00;;;;;;;2.44;52.78;102069.56;4861762;28;118595;-72
2024/01/21 03:22:03;;;;;;;5.47;2.67;;;;;;;2.48;52.90;102060.88;4882864;28;117275;-72
2024/01/21 03:24:31;;;;;;;7.75;2.80;;;;;;;2.51;52.85;102050.44;4870017;28;122476;-72
2024/01/21 03:26:59;;;;;;;6.53;2.70;;;;;;;2.53;52.72;102035.63;4891354;28;123578;-72
2024/01/21 03:29:26;;;;;;;5.68;2.60;;;;;;;2.59;52.79;102026.09;4885666;28;120063;-72
2024/01/21 03:31:53;;;;;;;4.60;2.80;;;;;;;2.60;52.59;102025.22;4868198;28;119350;-72
2024/01/21 03:34:20;;;;;;;5.35;2.85;;;;;;;2.63;52.79;102027.88;4852641;28;125165;-72
2024/01/21 03:36:47;;;;;;;5.93;2.88;;;;;;;2.66;52.52;102027.91;4867882;28;123812;-72
2024/01/21 03:39:15;;;;;;;6.07;3.05;;;;;;;2.68;52.69;102010.47;4853040;28;121748;-72
2024/01/21 03:41:42;;;;;;;7.55;2.72;;;;;;;2.70;52.71;102021.81;4867716;28;121253;-72
2024/01/21 03:44:09;;;;;;;4.53;2.65;;;;;;;2.71;52.44;102026.16;4853429;28;125217;-72
2024/01/21 03:46:36;;;;;;;4.90;2.63;;;;;;;2.72;52.70;102027.94;4868438;28;125139;-72
2024/01/21 03:49:04;;;;;;;4.15;2.25;;;;;;;2.75;52.65;102033.19;4867436;28;118850;-72
2024/01/21 03:51:31;;;;;;;4.85;2.72;;;;;;;2.76;52.79;102040.16;4867944;28;119580;-73
2024/01/21 03:53:58;;;;;;;7.28;2.55;;;;;;;2.78;52.61;102033.19;4848709;28;125654;-72
2024/01/21 03:56:25;;;;;;;5.22;2.45;;;;;;;2.79;52.51;102024.50;4869089;28;124048;-72
2024/01/21 03:58:52;;;;;;;7.88;2.70;;;;;;;2.81;52.57;102025.38;4868896;28;119185;-72
2024/01/21 04:01:19;;;;;;;4.70;2.38;;;;;;;2.82;52.24;102029.72;4869557;28;119380;-72
2024/01/21 04:03:47;;;;;;;4.03;2.20;;;;;;;2.86;52.52;102026.28;4857967;28;125793;-72
2024/01/21 04:06:14;;;;;;;5.13;2.40;;;;;;;2.87;52.19;102027.16;4852505;28;123879;-72
2024/01/21 04:08:41;;;;;;;5.25;2.40;;;;;;;2.90;52.37;102038.50;4867260;28;119103;-72
2024/01/21 04:11:09;;;;;;;4.00;2.25;;;;;;;2.91;52.53;102027.16;4869673;28;120862;-72
2024/01/21 04:13:36;;;;;;;3.92;2.28;;;;;;;2.93;52.27;102028.03;4868958;28;124242;-72
2024/01/21 04:16:03;;;;;;;6.47;2.28;;;;;;;2.96;52.21;102026.31;4852250;28;125243;-72
2024/01/21 04:18:32;;;;;;;5.75;2.53;;;;;;;2.97;52.35;102017.59;4867336;28;118472;-72
2024/01/21 04:21:01;;;;;;;5.65;2.60;;;;;;;2.99;52.14;101994.94;4852888;28;120356;-72
2024/01/21 04:23:28;;;;;;;5.43;2.60;;;;;;;3.00;52.29;101981.00;4867115;28;123061;-72
2024/01/21 04:25:56;;;;;;;5.43;2.75;;;;;;;3.01;52.07;101969.66;4867341;28;124382;-72
2024/01/21 04:28:26;;;;;;;6.53;2.40;;;;;;;3.01;52.20;101977.50;4835474;28;121298;-72
2024/01/21 04:30:53;;;;;;;5.20;2.50;;;;;;;3.01;52.29;101973.13;4857071;28;119883;-72
2024/01/21 04:33:20;;;;;;;3.85;2.42;;;;;;;3.02;51.91;101948.72;4865656;28;124160;-71
2024/01/21 04:35:48;;;;;;;4.20;2.10;;;;;;;3.02;52.27;101953.94;4868347;28;123663;-71
2024/01/21 04:38:15;;;;;;;4.80;2.70;;;;;;;3.02;51.99;101947.84;4868069;28;119833;-72
2024/01/21 04:40:42;;;;;;;4.03;2.03;;;;;;;3.03;51.98;101950.47;4853993;28;118130;-71
2024/01/21 04:43:09;;;;;;;3.67;1.92;;;;;;;3.05;51.80;101958.31;4851952;28;125176;-71
2024/01/21 04:45:37;;;;;;;4.50;2.50;;;;;;;3.07;52.08;101956.56;4852918;28;123066;-72
2024/01/21 04:48:04;;;;;;;4.50;2.35;;;;;;;3.08;51.99;101947.88;4851290;28;120326;-72
2024/01/21 04:50:32;;;;;;;5.35;2.28;;;;;;;3.09;51.99;101949.63;4854909;28;118948;-71
2024/01/21 04:52:59;;;;;;;6.35;2.13;;;;;;;3.10;51.95;101933.03;4851521;28;123568;-71
2024/01/21 04:55:26;;;;;;;4.15;2.30;;;;;;;3.12;52.06;101923.44;4865954;28;123816;-72
2024/01/21 04:57:53;;;;;;;5.38;2.35;;;;;;;3.15;51.78;101913.00;4867988;28;119124;-71
2024/01/21 05:00:20;;;;;;;3.03;2.17;;;;;;;3.17;51.93;101908.66;4858404;28;119114;-74
2024/01/21 05:02:47;;;;;;;4.40;2.22;;;;;;;3.20;52.07;101889.44;4847209;28;121733;-71
2024/01/21 05:05:14;;;;;;;5.20;2.33;;;;;;;3.21;52.15;101894.69;4841883;28;123126;-71
2024/01/21 05:07:42;;;;;;;4.07;2.20;;;;;;;3.22;51.80;101888.59;4866861;28;119259;-71
2024/01/21 05:10:09;;;;;;;6.28;2.67;;;;;;;3.24;51.88;101892.09;4850237;28;120009;-71
2024/01/21 05:12:36;;;;;;;4.60;2.08;;;;;;;3.27;52.02;101886.84;4852991;28;125584;-72
2024/01/21 05:15:04;;;;;;;5.85;2.35;;;;;;;3.30;52.06;101881.63;4835064;28;124988;-71
2024/01/21 05:17:31;;;;;;;3.65;2.20;;;;;;;3.33;51.80;101874.63;4867985;28;120552;-71
2024/01/21 05:19:58;;;;;;;6.05;2.67;;;;;;;3.35;52.04;101873.75;4869230;28;119740;-71
2024/01/21 05:22:28;;;;;;;4.50;2.20;;;;;;;3.39;52.00;101869.41;4866178;28;124498;-71
2024/01/21 05:24:55;;;;;;;8.00;2.40;;;;;;;3.43;51.94;101865.94;4850327;28;122743;-71
2024/01/21 05:27:22;;;;;;;6.97;2.67;;;;;;;3.45;52.08;101869.44;4850841;28;120289;-72
2024/01/21 05:29:50;;;;;;;5.38;2.80;;;;;;;3.49;52.03;101881.66;4850646;28;120544;-71
2024/01/21 05:32:17;;;;;;;4.90;2.40;;;;;;;3.54;51.89;101895.59;4866300;28;125545;-71
2024/01/21 05:34:44;;;;;;;9.50;2.50;;;;;;;3.58;52.11;101905.22;4868515;28;127201;-72
2024/01/21 05:37:11;;;;;;;3.75;2.17;;;;;;;3.64;51.87;101907.84;4848716;28;121221;-72
2024/01/21 05:39:38;;;;;;;5.47;2.60;;;;;;;3.68;51.87;101899.13;4850312;28;118477;-72
2024/01/21 05:42:07;;;;;;;4.78;2.38;;;;;;;3.72;51.91;101889.50;4850318;28;124099;-72
2024/01/21 05:44:35;;;;;;;4.78;2.42;;;;;;;3.78;51.72;101880.78;4865156;28;123182;-71
2024/01/21 05:47:02;;;;;;;5.65;2.35;;;;;;;3.83;51.73;101865.94;4850914;28;120193;-71
2024/01/21 05:49:29;;;;;;;5.30;2.40;;;;;;;3.88;51.84;101869.41;4855088;28;118419;-71
2024/01/21 05:51:57;;;;;;;4.65;2.50;;;;;;;3.92;51.59;101860.69;4868334;28;124023;-72
2024/01/21 05:54:27;;;;;;;4.72;2.65;;;;;;;3.97;51.81;101848.44;4868024;28;123749;-71
2024/01/21 05:56:54;;;;;;;7.70;2.85;;;;;;;4.02;51.76;101851.94;4868197;28;118961;-71
2024/01/21 05:59:21;;;;;;;4.97;2.83;;;;;;;4.07;51.44;101850.19;4866604;28;118585;-71
2024/01/21 06:01:49;;;;;;;4.63;2.67;;;;;;;4.12;51.39;101857.16;4857185;28;124111;-71
2024/01/21 06:04:17;;;;;;;4.78;2.42;;;;;;;4.18;51.82;101851.88;4858391;28;123912;-72
2024/01/21 06:06:45;;;;;;;9.27;3.10;;;;;;;4.22;51.72;101858.88;4854909;28;120226;-73
2024/01/21 06:09:12;;;;;;;5.63;3.33;;;;;;;4.27;51.28;101878.09;4850233;28;118730;-72
2024/01/21 06:11:40;;;;;;;5.25;2.70;;;;;;;4.31;51.36;101874.59;4873192;28;125459;-72
2024/01/21 06:14:08;;;;;;;6.05;2.58;;;;;;;4.34;51.33;101858.84;4871988;28;124613;-72
2024/01/21 06:16:35;;;;;;;6.72;3.50;;;;;;;4.38;51.53;101850.09;4878652;28;118499;-72
2024/01/21 06:19:03;;;;;;;6.75;3.00;;;;;;;4.42;51.12;101867.56;4877714;28;118310;-71
2024/01/21 06:21:31;;;;;;;6.65;3.40;;;;;;;4.45;51.08;101864.94;4862239;28;124517;-72
2024/01/21 06:23:58;;;;;;;6.05;2.92;;;;;;;4.47;51.19;101844.81;4880578;28;122995;-72
2024/01/21 06:26:26;;;;;;;7.07;2.85;;;;;;;4.52;51.48;101841.31;4869262;28;118564;-72
2024/01/21 06:28:54;;;;;;;6.88;3.17;;;;;;;4.55;51.40;101836.06;4868323;28;118562;-72
2024/01/21 06:31:21;;;;;;;8.23;3.47;;;;;;;4.58;51.06;101859.66;4866672;28;123592;-71
2024/01/21 06:33:48;;;;;;;6.70;3.58;;;;;;;4.62;50.88;101869.25;4891799;28;124418;-72
2024/01/21 06:36:16;;;;;;;5.97;3.38;;;;;;;4.65;50.98;101863.97;4890786;28;121334;-72
2024/01/21 06:38:44;;;;;;;6.95;3.50;;;;;;;4.68;51.14;101879.72;4877697;28;121005;-72
2024/01/21 06:41:11;;;;;;;7.10;3.35;;;;;;;4.70;51.04;101872.72;4868387;28;121875;-72
2024/01/21 06:43:38;;;;;;;7.40;2.92;;;;;;;4.74;50.97;101879.69;4866118;28;122101;-72
2024/01/21 06:46:06;;;;;;;6.88;3.25;;;;;;;4.78;50.79;101885.81;4858865;28;118880;-72
2024/01/21 06:48:34;;;;;;;7.13;3.10;;;;;;;4.81;50.81;101870.91;4862300;28;120025;-72
2024/01/21 06:51:09;;;;;;;5.88;3.10;;;;;;;4.84;50.96;101875.28;4870175;28;124552;-72
2024/01/21 06:53:37;;;;;;;7.43;3.47;;;;;;;4.88;50.81;101877.88;4847408;28;124397;-72
2024/01/21 06:56:07;;;;;;;7.72;3.25;;;;;;;4.92;50.78;101883.13;4845378;28;120764;-72
2024/01/21 06:58:34;;;;;;;5.70;3.20;;;;;;;4.94;50.79;101892.75;4852475;28;120207;-72
2024/01/21 07:01:02;;;;;;;7.90;3.92;;;;;;;4.98;50.67;101889.22;4866661;28;122793;-72
2024/01/21 07:03:29;;;;;;;5.97;3.30;;;;;;;5.01;50.53;101888.31;4867689;28;124827;-72
2024/01/21 07:05:56;;;;;;;8.43;3.63;;;;;;;5.04;50.67;101893.56;4870030;28;119435;-72
2024/01/21 07:08:24;;;;;;;7.50;3.58;;;;;;;5.07;50.44;101898.81;4853649;28;119354;-72
2024/01/21 07:10:51;;;;;;;5.75;2.90;;;;;;;5.09;50.58;101897.03;4840990;28;124642;-72
2024/01/21 07:13:18;;;;;;;6.95;3.50;;;;;;;5.11;50.38;101887.41;4868462;28;123838;-72
2024/01/21 07:15:45;;;;;;;5.63;2.92;;;;;;;5.13;50.57;101872.50;4868954;28;118600;-72
2024/01/21 07:18:12;;;;;;;6.72;3.42;;;;;;;5.15;50.12;101854.97;4869174;28;118727;-72
2024/01/21 07:20:40;;;;;;;6.25;3.10;;;;;;;5.19;50.27;101851.44;4858615;28;124033;-72
2024/01/21 07:23:07;;;;;;;4.93;2.88;;;;;;;5.20;50.16;101832.19;4894129;28;126356;-72
2024/01/21 07:25:34;;;;;;;6.43;3.38;;;;;;;5.23;50.07;101826.03;4893805;28;119131;-71
2024/01/21 07:28:02;;;;;;;8.63;3.55;;;;;;;5.25;50.39;101835.69;4892452;28;119217;-71
2024/01/21 07:30:29;;;;;;;5.90;3.03;;;;;;;5.28;50.32;101849.66;4867003;28;123608;-72
2024/01/21 07:32:57;;;;;;;6.40;3.42;;;;;;;5.30;49.88;101832.13;4894119;28;123338;-72
2024/01/21 07:35:27;;;;;;;6.88;3.05;;;;;;;5.33;49.88;101832.09;4873151;28;119053;-71
2024/01/21 07:37:55;;;;;;;6.20;3.17;;;;;;;5.34;49.96;101825.97;4893648;28;119473;-72
2024/01/21 07:40:22;;;;;;;6.55;3.38;;;;;;;5.36;49.45;101832.09;4878729;28;123332;-72
2024/01/21 07:42:49;;;;;;;8.77;3.10;;;;;;;5.37;49.85;101825.94;4845897;28;123600;-72
2024/01/21 07:45:16;;;;;;;6.70;3.00;;;;;;;5.39;49.85;101832.06;4846707;29;119387;-72
2024/01/21 07:47:45;;;;;;;6.97;3.08;;;;;;;5.41;49.84;101851.31;4851115;28;120133;-73
2024/01/21 07:50:13;;;;;;;6.65;3.30;;;;;;;5.42;49.69;101847.78;4871513;28;124610;-73
2024/01/21 07:52:42;;;;;;;8.63;3.40;;;;;;;5.43;49.40;101828.53;4853050;28;124385;-72
2024/01/21 07:55:09;;;;;;;8.68;3.05;;;;;;;5.46;49.32;101839.00;4862514;28;119706;-72
2024/01/21 07:57:39;;;;;;;6.03;2.90;;;;;;;5.47;49.31;101856.53;4865450;28;117840;-73
2024/01/21 08:00:07;;;;;;;5.68;3.05;;;;;;;5.50;49.65;101877.53;4853303;28;124217;-73
2024/01/21 08:02:35;;;;;;;7.32;3.22;;;;;;;5.51;49.45;101863.50;4863661;28;125610;-73
2024/01/21 08:05:02;;;;;;;5.57;3.13;;;;;;;5.54;49.32;101883.59;4873962;28;119259;-72
2024/01/21 08:07:29;;;;;;;5.90;3.22;;;;;;;5.56;49.45;101898.50;4875486;28;117770;-72
2024/01/21 08:09:58;;;;;;;5.95;2.70;;;;;;;5.59;49.11;101903.72;4861845;28;123038;-73
2024/01/21 08:12:25;;;;;;;6.20;3.40;;;;;;;5.61;49.60;101907.22;4871904;28;124289;-72
2024/01/21 08:14:53;;;;;;;7.95;3.22;;;;;;;5.63;49.17;101900.19;4844183;28;120551;-73
2024/01/21 08:17:20;;;;;;;7.78;3.88;;;;;;;5.65;49.36;101893.19;4863981;28;117027;-73
2024/01/21 08:19:47;;;;;;;6.85;3.78;;;;;;;5.66;48.98;101921.19;4872458;28;123973;-73
2024/01/21 08:22:14;;;;;;;9.38;3.83;;;;;;;5.66;49.24;101931.69;4837939;28;125069;-73
2024/01/21 08:24:42;;;;;;;8.60;3.90;;;;;;;5.69;49.42;101924.66;4862153;28;119307;-73
2024/01/21 08:27:09;;;;;;;9.30;4.03;;;;;;;5.70;49.17;101937.81;4871187;28;119109;-73
2024/01/21 08:29:39;;;;;;;5.60;3.28;;;;;;;5.71;49.03;101929.06;4869994;28;124323;-73
2024/01/21 08:32:07;;;;;;;6.80;3.90;;;;;;;5.73;48.87;101934.31;4868160;28;123875;-73
2024/01/21 08:34:35;;;;;;;7.63;3.15;;;;;;;5.75;48.83;101924.66;4864183;28;121322;-73
2024/01/21 08:37:03;;;;;;;8.00;3.67;;;;;;;5.76;48.97;101937.75;4854273;28;121289;-73
2024/01/21 08:39:30;;;;;;;7.57;3.88;;;;;;;5.79;48.72;101934.25;4849118;28;124998;-73
2024/01/21 08:41:57;;;;;;;8.52;3.53;;;;;;;5.81;49.19;101929.84;4852902;28;124397;-73
2024/01/21 08:44:25;;;;;;;6.38;3.60;;;;;;;5.84;48.86;101916.69;4866577;28;119689;-73
2024/01/21 08:46:52;;;;;;;6.72;3.58;;;;;;;5.85;48.87;101918.41;4843846;29;119933;-73
2024/01/21 08:49:19;;;;;;;7.78;3.63;;;;;;;5.87;48.88;101916.66;4868092;28;124629;-73
2024/01/21 08:51:46;;;;;;;7.70;3.50;;;;;;;5.90;49.04;101929.78;4871090;28;123760;-73
2024/01/21 08:54:13;;;;;;;8.25;3.75;;;;;;;5.92;48.72;101920.13;4867232;28;119560;-73
2024/01/21 08:56:41;;;;;;;7.63;3.22;;;;;;;5.93;48.93;101924.47;4842360;28;121028;-73
2024/01/21 08:59:10;;;;;;;7.40;3.47;;;;;;;5.95;48.98;101914.88;4850755;28;123417;-73
2024/01/21 09:01:37;;;;;;;5.80;3.65;;;;;;;5.97;48.47;101930.63;4869873;28;123681;-73
2024/01/21 09:04:04;;;;;;;7.78;3.63;;;;;;;5.98;48.98;101921.84;4864211;28;119277;-73
2024/01/21 09:06:32;;;;;;;7.13;3.40;;;;;;;6.01;48.67;101930.59;4846413;28;118989;-73
2024/01/21 09:09:00;;;;;;;6.22;3.50;;;;;;;6.03;48.53;101920.94;4849249;28;125184;-74
2024/01/21 09:11:27;;;;;;;6.45;2.95;;;;;;;6.07;48.54;101921.78;4851837;28;125513;-73
2024/01/21 09:13:55;;;;;;;7.80;3.40;;;;;;;6.10;48.48;101916.47;4869534;28;119105;-74
2024/01/21 09:16:23;;;;;;;6.15;3.45;;;;;;;6.13;48.55;101915.59;4868750;28;118919;-74
2024/01/21 09:18:50;;;;;;;6.97;3.58;;;;;;;6.17;48.76;101920.78;4833616;28;124674;-74
2024/01/21 09:21:17;;;;;;;6.20;3.30;;;;;;;6.21;48.57;101919.00;4860812;28;124797;-74
2024/01/21 09:23:56;;;;;;;5.38;3.22;;;;;;;6.25;48.77;101925.97;4865303;28;120982;-74
2024/01/21 09:26:24;;;;;;;7.07;3.33;;;;;;;6.29;48.73;101927.72;4868330;28;119777;-74
2024/01/21 09:28:51;;;;;;;7.82;3.65;;;;;;;6.31;49.02;101936.47;4852007;28;124214;-74
2024/01/21 09:31:18;;;;;;;6.57;3.53;;;;;;;6.35;48.70;101953.09;4867796;28;123609;-74
2024/01/21 09:33:45;;;;;;;8.23;3.10;;;;;;;6.36;48.97;101955.69;4833584;28;121287;-74
2024/01/21 09:36:15;;;;;;;6.47;3.50;;;;;;;6.37;48.75;101952.19;4851142;28;120038;-74
2024/01/21 09:38:42;;;;;;;6.10;3.55;;;;;;;6.41;49.00;101964.41;4862376;28;125587;-74
2024/01/21 09:41:12;;;;;;;8.02;3.55;;;;;;;6.43;48.72;101956.53;4856058;28;123634;-74
2024/01/21 09:43:43;;;;;;;5.80;3.38;;;;;;;6.47;48.89;101952.09;4864652;28;120340;-74
2024/01/21 09:46:12;;;;;;;8.68;3.25;;;;;;;6.48;48.79;101960.00;4861053;28;120054;-74
2024/01/21 09:48:39;;;;;;;9.70;3.45;;;;;;;6.50;49.02;101957.31;4868435;28;124211;-74
2024/01/21 09:51:08;;;;;;;6.22;3.22;;;;;;;6.51;49.11;101949.41;4853326;28;125109;-75
2024/01/21 09:53:35;;;;;;;5.40;3.30;;;;;;;6.52;49.34;101950.31;4872813;28;119521;-75
2024/01/21 09:56:07;;;;;;;7.57;3.38;;;;;;;6.55;49.13;101960.78;4870722;28;119282;-74
2024/01/21 09:58:43;;;;;;;7.55;3.53;;;;;;;6.56;49.43;101962.53;4858229;28;125091;-75
2024/01/21 10:01:11;;;;;;;6.97;3.33;;;;;;;6.57;49.30;101969.53;4851495;28;124288;-75
2024/01/21 10:03:39;;;;;;;7.40;3.15;;;;;;;6.57;49.32;101964.25;4866214;28;118981;-75
2024/01/21 10:06:07;;;;;;;8.38;3.22;;;;;;;6.58;49.39;101960.75;4862765;28;118446;-75
2024/01/21 10:08:39;;;;;;;7.07;3.65;;;;;;;6.59;49.46;101951.97;4866700;28;124886;-75
2024/01/21 10:11:07;;;;;;;8.25;3.72;;;;;;;6.60;49.67;101945.81;4870247;28;123721;-74
2024/01/21 10:13:36;;;;;;;7.15;3.22;;;;;;;6.61;49.83;101950.19;4851344;28;121179;-74
2024/01/21 10:16:05;;;;;;;8.00;3.60;;;;;;;6.61;49.78;101956.34;4867367;28;119892;-75
2024/01/21 10:18:33;;;;;;;7.38;3.60;;;;;;;6.62;49.99;101957.19;4848648;28;124797;-76
2024/01/21 10:21:05;;;;;;;5.47;2.97;;;;;;;6.64;50.40;101947.53;4845314;28;124481;-76
2024/01/21 10:23:33;;;;;;;5.88;3.58;;;;;;;6.66;50.15;101943.13;4869233;28;118819;-75
2024/01/21 10:26:00;;;;;;;5.68;3.35;;;;;;;6.67;50.23;101939.59;4870649;28;119142;-78
2024/01/21 10:28:30;;;;;;;9.85;3.75;;;;;;;6.70;50.36;101933.41;4866743;28;123198;-75
2024/01/21 10:30:57;;;;;;;9.13;3.90;;;;;;;6.71;50.64;101936.03;4841254;29;124760;-75
2024/01/21 10:33:25;;;;;;;6.90;3.95;;;;;;;6.75;50.48;101937.75;4867559;28;119372;-76
2024/01/21 10:35:55;;;;;;;6.53;3.47;;;;;;;6.79;50.87;101943.84;4864116;28;118697;-75
2024/01/21 10:38:26;;;;;;;7.47;4.10;;;;;;;6.82;50.88;101949.97;4862694;28;125890;-75
2024/01/21 10:40:54;;;;;;;8.80;4.07;;;;;;;6.86;50.88;101936.75;4848779;28;125046;-75
2024/01/21 10:43:21;;;;;;;7.05;3.90;;;;;;;6.90;51.08;101927.94;4871570;28;119459;-75
2024/01/21 10:45:52;;;;;;;6.25;3.80;;;;;;;6.91;51.37;101925.28;4870052;28;118573;-75
2024/01/21 10:48:20;;;;;;;9.75;3.78;;;;;;;6.94;50.95;101922.59;4847630;28;125125;-75
2024/01/21 10:50:51;;;;;;;6.22;3.58;;;;;;;6.94;51.12;101927.00;4850456;28;124736;-75
2024/01/21 10:53:20;;;;;;;8.25;3.78;;;;;;;6.95;51.26;101912.91;4845373;28;119262;-75
2024/01/21 10:55:48;;;;;;;7.63;4.40;;;;;;;6.96;51.59;101915.53;4869137;28;119594;-75
2024/01/21 10:58:16;;;;;;;7.43;4.72;;;;;;;6.99;51.58;101899.72;4866465;28;124009;-75
2024/01/21 11:00:44;;;;;;;8.65;4.00;;;;;;;7.02;51.77;101894.38;4853304;28;124582;-75
2024/01/21 11:03:31;;;;;;;7.70;3.75;;;;;;;7.02;51.79;101893.53;4850537;28;120762;-75
2024/01/21 11:06:00;;;;;;;;;;;;;;;7.02;51.73;101877.72;4852745;28;121359;-75
2024/01/21 11:08:28;;;;;;;7.53;3.75;;;;;;;7.02;51.81;101877.72;4853952;28;124404;-76
2024/01/21 11:11:06;;;;;;;7.47;4.30;;;;;;;7.00;51.93;101879.50;4852748;28;125934;-75
2024/01/21 11:13:41;;;;;;;10.02;4.25;;;;;;;6.99;52.01;101885.69;4849731;28;119013;-76
2024/01/21 11:16:12;;;;;;;8.03;3.93;;;;;;;7.00;51.78;101877.72;4860486;28;119534;-76
2024/01/21 11:18:42;;;;;;;7.20;3.85;;;;;;;7.02;51.83;101882.97;4867741;28;123167;-76
2024/01/21 11:21:12;;;;;;;7.78;4.10;;;;;;;7.03;52.21;101874.22;4838151;28;122517;-76
2024/01/21 11:23:40;;;;;;;7.00;3.83;;;;;;;7.07;52.02;101870.63;4863169;28;120188;-75
2024/01/21 11:26:18;;;;;;;7.05;4.10;;;;;;;7.08;52.04;101892.56;4867490;28;120072;-76